KOPF/OPF METAR and TAF weather

Enter ICAO airport designator
Station Type Date Time Source
KOPF METAR 2019/06/27 03:53 UTC NOAA

KOPF 270353Z AUTO 33005KT 10SM CLR 26/22 A3011 RMK AO2 LTG DSNT S SLP196 T02610217


Station Type Date Time Source
KOPF Decoded METAR 2019/06/27 03:53 UTC NOAA

MIAMI OPA LOCKA AIRPORT, FL, United States (KOPF) 25-54N 80-17W 16M
Jun 26, 2019 - 11:53 PM EDT / 2019.06.27 0353 UTC
Wind: from the NNW (330 degrees) at 6 MPH (5 KT):0
Visibility: 10 mile(s):0
Sky conditions: clear
Weather: Lightning observed
Temperature: 79.0 F (26.1 C)
Dew Point: 71.1 F (21.7 C)
Relative Humidity: 76%
Pressure (altimeter): 30.11 in. Hg (1019 hPa)
ob: KOPF 270353Z AUTO 33005KT 10SM CLR 26/22 A3011 RMK AO2 LTG DSNT S SLP196 T02610217
cycle: 4

Station Type Date Time Source
KOPF TAF 2019/06/27 03:12 UTC NOAA

TAF
AMD KOPF 270311Z 2703/2724 VRB03KT P6SM SCT200
FM271400 09010KT P6SM FEW035 SCT150
FM272300 09006KT P6SM FEW035 SCT080

Example: see airport list